Time;durP1;ratioP1;P1;durP2;ratioP2;P2;SDS_P1;SDS_P2;PMS_P1;PMS_P2;Temp;Humidity;BMP_temperature;BMP_pressure;BME280_temperature;BME280_humidity;BME280_pressure;Samples;Min_cycle;Max_cycle;Signal;HPM_P1;HPM_P2
2022/01/24 00:00:55;;;;;;;92.80;54.10;;;;;;;;;;4962082;28;20935;-79
2022/01/24 00:03:22;;;;;;;91.40;50.67;;;;;;;;;;4963282;28;20508;-79
2022/01/24 00:05:49;;;;;;;85.40;49.42;;;;;;;;;;4966780;28;20959;-79
2022/01/24 00:08:17;;;;;;;84.70;47.25;;;;;;;;;;4965619;28;20785;-79
2022/01/24 00:10:46;;;;;;;77.17;45.93;;;;;;;;;;4968902;28;20455;-79
2022/01/24 00:13:58;;;;;;;75.95;44.55;;;;;;;;;;4967875;28;20408;-79
2022/01/24 00:16:22;;;;;;;71.68;41.70;;;;;;;;;;4965474;28;20630;-79
2022/01/24 00:27:04;;;;;;;66.10;39.10;;;;;;;;;;4966631;28;20402;-79
2022/01/24 00:29:31;;;;;;;65.30;38.00;;;;;;;;;;4970754;28;20464;-79
2022/01/24 00:31:58;;;;;;;63.95;37.25;;;;;;;;;;4972228;28;20409;-79
2022/01/24 00:34:25;;;;;;;62.53;37.43;;;;;;;;;;4969384;28;20401;-79
2022/01/24 00:36:52;;;;;;;64.18;36.85;;;;;;;;;;4971882;28;20451;-79
2022/01/24 00:39:21;;;;;;;64.07;35.25;;;;;;;;;;4971867;28;20814;-79
2022/01/24 00:42:00;;;;;;;59.83;35.75;;;;;;;;;;4972267;28;20415;-79
2022/01/24 00:47:16;;;;;;;55.30;32.47;;;;;;;;;;4971086;28;20398;-79
2022/01/24 00:49:56;;;;;;;55.88;32.78;;;;;;;;;;4971530;28;20417;-79
2022/01/24 00:55:09;;;;;;;55.47;32.00;;;;;;;;;;4971749;28;20398;-79
2022/01/24 00:57:36;;;;;;;51.50;30.92;;;;;;;;;;4968507;28;20406;-79
2022/01/24 01:00:05;;;;;;;51.97;29.92;;;;;;;;;;4970699;28;20422;-79
2022/01/24 01:02:32;;;;;;;50.15;29.35;;;;;;;;;;4970746;28;20415;-79
2022/01/24 01:05:20;;;;;;;48.72;28.33;;;;;;;;;;4971315;28;20413;-79
2022/01/24 01:07:57;;;;;;;47.85;28.63;;;;;;;;;;4971559;28;20925;-79
2022/01/24 01:18:39;;;;;;;47.58;28.60;;;;;;;;;;4970685;28;20829;-79
2022/01/24 01:21:10;;;;;;;47.85;28.25;;;;;;;;;;4968363;28;20893;-78
2022/01/24 01:23:41;;;;;;;44.97;27.50;;;;;;;;;;4967591;28;20684;-79
2022/01/24 01:26:17;;;;;;;52.23;28.53;;;;;;;;;;4968877;28;20531;-79
2022/01/24 01:28:47;;;;;;;47.03;27.93;;;;;;;;;;4969127;28;20417;-79
2022/01/24 01:31:24;;;;;;;45.47;27.35;;;;;;;;;;4969453;28;20472;-78
2022/01/24 01:34:00;;;;;;;46.85;28.17;;;;;;;;;;4971324;28;20407;-79
2022/01/24 01:36:44;;;;;;;48.70;27.88;;;;;;;;;;4968490;28;20413;-79
2022/01/24 01:56:10;;;;;;;55.58;30.77;;;;;;;;;;5118793;27;20618;-79
2022/01/24 01:58:38;;;;;;;52.42;31.33;;;;;;;;;;5120766;28;20398;-79
2022/01/24 02:01:05;;;;;;;53.97;31.15;;;;;;;;;;5123140;28;20463;-79
2022/01/24 02:03:33;;;;;;;54.90;32.87;;;;;;;;;;5122909;28;20492;-79
2022/01/24 02:05:59;;;;;;;55.23;34.47;;;;;;;;;;5122574;28;20408;-78
2022/01/24 02:08:28;;;;;;;64.57;36.65;;;;;;;;;;5121724;27;20389;-79
2022/01/24 02:10:55;;;;;;;59.40;35.60;;;;;;;;;;5123660;27;20394;-78
2022/01/24 02:13:24;;;;;;;56.92;34.22;;;;;;;;;;5123197;27;20408;-79
2022/01/24 02:16:00;;;;;;;60.67;35.42;;;;;;;;;;5123081;27;20422;-79
2022/01/24 02:18:33;;;;;;;61.55;35.97;;;;;;;;;;5136669;27;20766;-79
2022/01/24 02:21:25;;;;;;;65.95;38.67;;;;;;;;;;5137665;27;20414;-79
2022/01/24 02:23:57;;;;;;;68.95;40.67;;;;;;;;;;5122599;28;20434;-79
2022/01/24 02:26:24;;;;;;;75.68;43.10;;;;;;;;;;5123154;27;20394;-79
2022/01/24 02:29:01;;;;;;;74.72;43.72;;;;;;;;;;5123026;27;20462;-79
2022/01/24 02:31:47;;;;;;;83.47;46.47;;;;;;;;;;5136874;27;20398;-79
2022/01/24 02:34:29;;;;;;;88.00;51.60;;;;;;;;;;5121038;28;20394;-79
2022/01/24 02:36:58;;;;;;;91.80;50.88;;;;;;;;;;5122988;27;20423;-79
2022/01/24 02:39:46;;;;;;;88.07;49.03;;;;;;;;;;5122929;27;20402;-79
2022/01/24 02:50:46;;;;;;;105.22;55.92;;;;;;;;;;5136539;27;20416;-79
2022/01/24 02:53:13;;;;;;;97.78;54.90;;;;;;;;;;5108365;28;20405;-79
2022/01/24 02:55:42;;;;;;;97.97;55.40;;;;;;;;;;5108849;28;20589;-79
2022/01/24 02:58:09;;;;;;;103.60;56.10;;;;;;;;;;5106286;28;20387;-79
2022/01/24 03:00:37;;;;;;;101.32;56.85;;;;;;;;;;5105550;28;20471;-79
2022/01/24 03:03:04;;;;;;;101.03;56.43;;;;;;;;;;5119091;27;20459;-79
2022/01/24 03:05:31;;;;;;;102.60;56.67;;;;;;;;;;5120528;27;20759;-79
2022/01/24 03:07:58;;;;;;;106.45;56.63;;;;;;;;;;5118956;27;20481;-79
2022/01/24 03:10:29;;;;;;;100.90;56.38;;;;;;;;;;5119912;27;20402;-79
2022/01/24 03:13:10;;;;;;;101.75;55.60;;;;;;;;;;5119300;27;20417;-79
2022/01/24 03:15:38;;;;;;;100.40;54.92;;;;;;;;;;5113496;27;20931;-79
2022/01/24 03:18:05;;;;;;;97.07;55.00;;;;;;;;;;5120941;27;20388;-78
2022/01/24 03:20:32;;;;;;;100.50;54.33;;;;;;;;;;5114481;27;20418;-79
2022/01/24 03:22:59;;;;;;;96.32;53.92;;;;;;;;;;5119349;27;20407;-79
2022/01/24 03:25:26;;;;;;;96.80;53.28;;;;;;;;;;5117187;27;20457;-79
2022/01/24 03:27:53;;;;;;;98.15;53.75;;;;;;;;;;5119195;27;20402;-79
2022/01/24 03:30:22;;;;;;;92.78;52.47;;;;;;;;;;5119507;27;20408;-79
2022/01/24 03:32:48;;;;;;;95.53;51.15;;;;;;;;;;5118371;27;20395;-79
2022/01/24 03:35:15;;;;;;;93.75;51.40;;;;;;;;;;5120580;27;20446;-79
2022/01/24 03:37:42;;;;;;;93.57;52.03;;;;;;;;;;5117271;27;20831;-79
2022/01/24 03:40:10;;;;;;;88.00;50.35;;;;;;;;;;5120454;27;20872;-79
2022/01/24 03:42:38;;;;;;;90.78;50.35;;;;;;;;;;5112738;27;20414;-79
2022/01/24 03:45:07;;;;;;;93.25;49.83;;;;;;;;;;5120605;27;20446;-79
2022/01/24 03:47:55;;;;;;;87.00;49.70;;;;;;;;;;5116651;27;20413;-79
2022/01/24 03:50:22;;;;;;;87.50;50.40;;;;;;;;;;5116786;27;20936;-79
2022/01/24 03:52:49;;;;;;;87.47;47.92;;;;;;;;;;5119187;27;20401;-79
2022/01/24 03:55:16;;;;;;;82.70;47.20;;;;;;;;;;5117448;27;20430;-79
2022/01/24 03:57:43;;;;;;;82.13;46.50;;;;;;;;;;5119731;27;20748;-79
2022/01/24 04:00:11;;;;;;;84.88;47.20;;;;;;;;;;5116839;27;20769;-79
2022/01/24 04:02:39;;;;;;;82.82;45.97;;;;;;;;;;5112757;27;20423;-78
2022/01/24 04:05:07;;;;;;;77.28;44.08;;;;;;;;;;5111802;27;20402;-78
2022/01/24 04:07:34;;;;;;;74.30;43.47;;;;;;;;;;5119735;27;20393;-78
2022/01/24 04:10:06;;;;;;;77.72;44.35;;;;;;;;;;5117469;27;20444;-78
2022/01/24 04:12:34;;;;;;;84.82;45.90;;;;;;;;;;5119500;27;20404;-78
2022/01/24 04:15:11;;;;;;;79.20;44.53;;;;;;;;;;5117584;27;20403;-78
2022/01/24 04:17:43;;;;;;;82.72;45.47;;;;;;;;;;5119635;27;20884;-78
2022/01/24 04:22:57;;;;;;;83.97;47.28;;;;;;;;;;5117135;27;20393;-78
2022/01/24 04:25:24;;;;;;;87.35;46.65;;;;;;;;;;5117443;27;20400;-78
2022/01/24 04:27:56;;;;;;;84.93;46.55;;;;;;;;;;5117753;27;20406;-78
2022/01/24 04:30:23;;;;;;;81.28;45.90;;;;;;;;;;5117958;27;20821;-78
2022/01/24 04:32:51;;;;;;;85.15;46.72;;;;;;;;;;5117400;27;20395;-78
2022/01/24 04:35:18;;;;;;;81.28;45.05;;;;;;;;;;5118373;27;20401;-78
2022/01/24 04:37:45;;;;;;;79.43;44.40;;;;;;;;;;5116282;27;20399;-77
2022/01/24 04:40:12;;;;;;;79.63;44.53;;;;;;;;;;5119124;27;20405;-78
2022/01/24 04:42:47;;;;;;;82.63;44.70;;;;;;;;;;5115679;27;20471;-78
2022/01/24 04:45:39;;;;;;;72.97;41.60;;;;;;;;;;5113177;27;20955;-78
2022/01/24 04:51:14;;;;;;;80.47;45.27;;;;;;;;;;5036240;28;20511;-78
2022/01/24 04:56:24;;;;;;;82.40;44.60;;;;;;;;;;5060464;27;20402;-78
2022/01/24 04:58:51;;;;;;;80.13;44.67;;;;;;;;;;5117572;27;20404;-78
2022/01/24 05:01:18;;;;;;;82.03;44.67;;;;;;;;;;5116549;27;20422;-78
2022/01/24 05:03:46;;;;;;;74.45;42.83;;;;;;;;;;5111569;27;20415;-78
2022/01/24 05:06:13;;;;;;;80.70;43.72;;;;;;;;;;5110006;27;20487;-78
2022/01/24 05:08:40;;;;;;;83.28;44.63;;;;;;;;;;5105393;28;20797;-78
2022/01/24 05:11:10;;;;;;;80.05;45.10;;;;;;;;;;5104375;28;20429;-78
2022/01/24 05:24:37;;;;;;;79.22;44.72;;;;;;;;;;5116199;27;20814;-78
2022/01/24 05:27:04;;;;;;;79.00;45.23;;;;;;;;;;5116586;27;20400;-79
2022/01/24 05:29:31;;;;;;;79.18;44.50;;;;;;;;;;5116219;27;20884;-78
2022/01/24 05:31:58;;;;;;;82.50;44.15;;;;;;;;;;5117070;27;20447;-78
2022/01/24 05:34:26;;;;;;;78.78;43.13;;;;;;;;;;5116536;27;20625;-78
2022/01/24 05:36:53;;;;;;;78.60;42.72;;;;;;;;;;5114907;27;20886;-78
2022/01/24 05:39:20;;;;;;;77.65;43.28;;;;;;;;;;5116155;28;20451;-78
2022/01/24 05:41:47;;;;;;;72.70;41.13;;;;;;;;;;5115282;28;20426;-78
2022/01/24 05:44:14;;;;;;;78.05;43.25;;;;;;;;;;5116141;28;20879;-78
2022/01/24 05:46:40;;;;;;;82.33;43.40;;;;;;;;;;5115852;28;20829;-78
2022/01/24 05:49:07;;;;;;;70.75;41.42;;;;;;;;;;5103901;28;20850;-78
2022/01/24 05:51:36;;;;;;;74.77;42.67;;;;;;;;;;5106118;28;20406;-78
2022/01/24 05:54:03;;;;;;;73.10;42.28;;;;;;;;;;5107367;28;20430;-78
2022/01/24 05:56:30;;;;;;;74.40;41.72;;;;;;;;;;5116277;28;20402;-78
2022/01/24 05:58:57;;;;;;;71.88;42.40;;;;;;;;;;5116621;28;20395;-78
2022/01/24 06:01:24;;;;;;;72.78;41.85;;;;;;;;;;5115633;28;20633;-78
2022/01/24 06:03:50;;;;;;;73.73;40.90;;;;;;;;;;5115582;28;20391;-80
2022/01/24 06:06:17;;;;;;;71.88;39.92;;;;;;;;;;5116164;28;20398;-79
2022/01/24 06:08:45;;;;;;;72.60;41.08;;;;;;;;;;5109554;28;20396;-78
2022/01/24 06:11:12;;;;;;;70.00;39.72;;;;;;;;;;5105052;28;21193;-78
2022/01/24 06:13:39;;;;;;;69.57;39.55;;;;;;;;;;5103659;28;20422;-78
2022/01/24 06:16:06;;;;;;;69.63;38.85;;;;;;;;;;5106788;28;20389;-78
2022/01/24 06:18:33;;;;;;;72.90;39.88;;;;;;;;;;5104973;28;20400;-78
2022/01/24 06:20:59;;;;;;;68.78;39.03;;;;;;;;;;5109368;28;20808;-78
2022/01/24 06:23:26;;;;;;;68.65;38.55;;;;;;;;;;5116841;28;20391;-78
2022/01/24 06:25:54;;;;;;;67.60;38.77;;;;;;;;;;5100740;28;20814;-78
2022/01/24 06:28:21;;;;;;;66.05;38.75;;;;;;;;;;5103744;27;20522;-78
2022/01/24 06:30:48;;;;;;;68.70;39.47;;;;;;;;;;5111039;27;20935;-80
2022/01/24 06:33:15;;;;;;;69.93;39.10;;;;;;;;;;5088174;22;20421;-78
2022/01/24 06:35:42;;;;;;;70.68;39.42;;;;;;;;;;5049491;28;20840;-78
2022/01/24 06:38:09;;;;;;;69.30;40.65;;;;;;;;;;5064221;28;20467;-78
2022/01/24 06:40:36;;;;;;;68.57;38.63;;;;;;;;;;5061992;28;20401;-78
2022/01/24 06:43:04;;;;;;;65.80;37.80;;;;;;;;;;5062874;28;20422;-78
2022/01/24 06:45:31;;;;;;;70.78;39.92;;;;;;;;;;5066388;28;20409;-78
2022/01/24 06:47:58;;;;;;;71.32;39.80;;;;;;;;;;5064533;28;20455;-79
2022/01/24 06:50:25;;;;;;;70.53;40.47;;;;;;;;;;5065005;28;20398;-78
2022/01/24 06:52:52;;;;;;;65.97;39.37;;;;;;;;;;5066769;28;21025;-78
2022/01/24 06:55:19;;;;;;;71.40;39.33;;;;;;;;;;5066024;28;20460;-79
2022/01/24 06:57:46;;;;;;;68.93;39.25;;;;;;;;;;5066180;28;20807;-78
2022/01/24 07:00:15;;;;;;;70.43;39.05;;;;;;;;;;5063103;28;20465;-78
2022/01/24 07:02:41;;;;;;;67.22;39.08;;;;;;;;;;5061590;28;20491;-78
2022/01/24 07:05:09;;;;;;;65.80;39.28;;;;;;;;;;5065957;28;20511;-77
2022/01/24 07:07:36;;;;;;;70.43;39.15;;;;;;;;;;5067059;28;20409;-80
2022/01/24 07:10:04;;;;;;;70.43;39.42;;;;;;;;;;5067238;28;20394;-78
2022/01/24 07:12:30;;;;;;;71.70;39.83;;;;;;;;;;5066635;28;20428;-78
2022/01/24 07:15:03;;;;;;;70.03;40.10;;;;;;;;;;5065654;28;20480;-78
2022/01/24 07:17:55;;;;;;;67.80;38.90;;;;;;;;;;5065008;28;20460;-78
2022/01/24 07:20:20;;;;;;;67.22;38.20;;;;;;;;;;5066353;28;20390;-80
2022/01/24 07:22:47;;;;;;;69.47;39.38;;;;;;;;;;5066211;28;20421;-80
2022/01/24 07:25:14;;;;;;;70.68;40.58;;;;;;;;;;5066919;28;20816;-80
2022/01/24 07:27:41;;;;;;;69.18;40.13;;;;;;;;;;5064670;28;21229;-80
2022/01/24 07:30:09;;;;;;;68.25;39.85;;;;;;;;;;5067069;28;20398;-80
2022/01/24 07:32:37;;;;;;;62.28;38.40;;;;;;;;;;5065507;28;20831;-80
2022/01/24 07:35:05;;;;;;;67.30;38.55;;;;;;;;;;5066260;28;20401;-80
2022/01/24 07:37:31;;;;;;;62.47;39.40;;;;;;;;;;5065706;28;20402;-80
2022/01/24 07:39:58;;;;;;;66.13;39.38;;;;;;;;;;5066213;28;20800;-80
2022/01/24 07:42:39;;;;;;;63.90;39.28;;;;;;;;;;5066365;28;20474;-80
2022/01/24 07:45:06;;;;;;;65.43;38.55;;;;;;;;;;5066171;28;20413;-80
2022/01/24 07:47:33;;;;;;;61.67;37.38;;;;;;;;;;5065913;28;20750;-80
2022/01/24 07:50:01;;;;;;;64.45;39.20;;;;;;;;;;5066412;28;20870;-80
2022/01/24 07:52:28;;;;;;;64.43;38.70;;;;;;;;;;5066223;28;20406;-80
2022/01/24 07:54:55;;;;;;;63.40;38.65;;;;;;;;;;5065884;28;20928;-80
2022/01/24 07:57:22;;;;;;;63.35;37.90;;;;;;;;;;5065986;28;20448;-80
2022/01/24 07:59:49;;;;;;;64.40;39.17;;;;;;;;;;5066256;28;20421;-80
2022/01/24 08:02:16;;;;;;;64.72;40.05;;;;;;;;;;5065975;28;20406;-80
2022/01/24 08:04:42;;;;;;;63.60;38.80;;;;;;;;;;5063469;28;20882;-80
2022/01/24 08:07:11;;;;;;;65.32;38.25;;;;;;;;;;5066409;28;20393;-80
2022/01/24 08:09:37;;;;;;;60.07;36.70;;;;;;;;;;5065464;28;20893;-81
2022/01/24 08:12:05;;;;;;;62.30;36.50;;;;;;;;;;5065914;28;20509;-80
2022/01/24 08:14:32;;;;;;;59.63;35.80;;;;;;;;;;5064680;28;20478;-80
2022/01/24 08:17:00;;;;;;;59.90;36.63;;;;;;;;;;5066129;28;20418;-80
2022/01/24 08:19:27;;;;;;;60.83;36.92;;;;;;;;;;5065976;28;20402;-80
2022/01/24 08:21:56;;;;;;;60.00;38.25;;;;;;;;;;5066575;28;20398;-80
2022/01/24 08:24:24;;;;;;;64.25;39.08;;;;;;;;;;5064795;28;20410;-80
2022/01/24 08:26:51;;;;;;;67.30;39.38;;;;;;;;;;5063795;28;20394;-80
2022/01/24 08:29:18;;;;;;;58.45;36.50;;;;;;;;;;5064578;28;20394;-83
2022/01/24 08:31:45;;;;;;;53.85;34.58;;;;;;;;;;5065550;28;20398;-81
2022/01/24 08:34:12;;;;;;;49.90;31.95;;;;;;;;;;5066203;28;20460;-80
2022/01/24 08:36:39;;;;;;;49.38;31.08;;;;;;;;;;5061732;28;20899;-81
2022/01/24 08:39:08;;;;;;;46.92;30.30;;;;;;;;;;5065462;28;20398;-81
2022/01/24 08:42:01;;;;;;;47.70;30.60;;;;;;;;;;5060429;28;20410;-81
2022/01/24 08:45:43;;;;;;;55.30;34.78;;;;;;;;;;5063982;28;20456;-81
2022/01/24 08:47:22;;;;;;;48.85;30.83;;;;;;;;;;5064517;28;20904;-81
2022/01/24 08:49:49;;;;;;;49.33;30.23;;;;;;;;;;5064146;28;20402;-81
2022/01/24 08:52:17;;;;;;;49.00;29.77;;;;;;;;;;5065107;28;20417;-82
2022/01/24 08:54:44;;;;;;;46.50;30.13;;;;;;;;;;5064296;28;20818;-81
2022/01/24 08:57:13;;;;;;;51.38;31.95;;;;;;;;;;5065189;28;20390;-81
2022/01/24 08:59:40;;;;;;;49.42;31.10;;;;;;;;;;5060423;28;20400;-79
2022/01/24 09:02:09;;;;;;;49.65;30.80;;;;;;;;;;5063260;28;20402;-81
2022/01/24 09:04:36;;;;;;;48.97;29.70;;;;;;;;;;5064516;28;20398;-81
2022/01/24 09:07:05;;;;;;;44.85;29.00;;;;;;;;;;5064616;28;20468;-79
2022/01/24 09:09:34;;;;;;;44.33;29.15;;;;;;;;;;5064676;28;20429;-81
2022/01/24 09:12:01;;;;;;;45.53;29.23;;;;;;;;;;5064863;28;20410;-81
2022/01/24 09:14:29;;;;;;;44.83;28.13;;;;;;;;;;5063591;28;20398;-81
2022/01/24 09:16:56;;;;;;;41.92;26.33;;;;;;;;;;5063016;28;20401;-81
2022/01/24 09:19:23;;;;;;;39.97;24.75;;;;;;;;;;5064782;28;20455;-81
2022/01/24 09:21:50;;;;;;;37.58;23.00;;;;;;;;;;5065004;28;20934;-79
2022/01/24 09:24:17;;;;;;;34.13;22.00;;;;;;;;;;5063504;28;20418;-81
2022/01/24 09:26:44;;;;;;;36.08;23.05;;;;;;;;;;5062167;28;20405;-81
2022/01/24 09:29:11;;;;;;;38.07;24.30;;;;;;;;;;5064908;28;20402;-80
2022/01/24 09:31:40;;;;;;;34.47;21.88;;;;;;;;;;5062128;28;20472;-79
2022/01/24 09:34:06;;;;;;;34.03;21.42;;;;;;;;;;5067618;28;20405;-79
2022/01/24 09:36:33;;;;;;;33.60;22.40;;;;;;;;;;5068584;28;20422;-80
2022/01/24 09:39:00;;;;;;;32.80;21.58;;;;;;;;;;5068059;28;20879;-80
2022/01/24 09:41:27;;;;;;;32.40;19.45;;;;;;;;;;5068999;28;20394;-80
2022/01/24 09:43:54;;;;;;;32.58;20.65;;;;;;;;;;5067665;28;20421;-80
2022/01/24 09:46:21;;;;;;;32.35;19.65;;;;;;;;;;5069547;28;20670;-80
2022/01/24 09:48:49;;;;;;;32.10;18.55;;;;;;;;;;5067803;28;20889;-80
2022/01/24 09:51:16;;;;;;;29.48;17.67;;;;;;;;;;5069054;28;20883;-80
2022/01/24 09:53:43;;;;;;;25.53;16.87;;;;;;;;;;5068040;28;20450;-80
2022/01/24 09:56:10;;;;;;;25.25;16.75;;;;;;;;;;5065392;28;20463;-80
2022/01/24 09:58:38;;;;;;;25.92;16.75;;;;;;;;;;5069618;28;20400;-79
2022/01/24 10:01:06;;;;;;;22.95;15.15;;;;;;;;;;5068542;28;20405;-80
2022/01/24 10:03:33;;;;;;;21.20;13.67;;;;;;;;;;5071994;28;21175;-80
2022/01/24 10:06:01;;;;;;;22.27;14.73;;;;;;;;;;5072916;28;20454;-80
2022/01/24 10:08:30;;;;;;;22.02;14.50;;;;;;;;;;5073941;28;20398;-80
2022/01/24 10:10:59;;;;;;;22.88;13.75;;;;;;;;;;5071518;28;20410;-79
2022/01/24 10:16:25;;;;;;;23.15;14.77;;;;;;;;;;5074278;28;20389;-80
2022/01/24 10:19:00;;;;;;;30.30;20.00;;;;;;;;;;5071848;28;20397;-79
2022/01/24 10:21:29;;;;;;;23.88;16.77;;;;;;;;;;5073409;28;20398;-79
2022/01/24 10:23:56;;;;;;;24.75;16.15;;;;;;;;;;5072037;28;20418;-80
2022/01/24 10:26:25;;;;;;;27.63;18.50;;;;;;;;;;5071605;28;20505;-79
2022/01/24 10:28:52;;;;;;;28.83;18.43;;;;;;;;;;5073844;28;20410;-80
2022/01/24 10:31:24;;;;;;;32.70;25.45;;;;;;;;;;5072637;28;20797;-79
2022/01/24 10:34:00;;;;;;;31.13;24.10;;;;;;;;;;5048261;28;20418;-80
2022/01/24 10:36:41;;;;;;;32.83;19.98;;;;;;;;;;5048076;28;20411;-80
2022/01/24 10:39:14;;;;;;;32.78;21.27;;;;;;;;;;5048322;28;20404;-79
2022/01/24 10:41:55;;;;;;;30.25;19.80;;;;;;;;;;5047806;28;20421;-79
2022/01/24 10:44:33;;;;;;;30.40;21.25;;;;;;;;;;5047636;28;20420;-79
2022/01/24 10:47:14;;;;;;;31.85;20.67;;;;;;;;;;5047556;28;20403;-80
2022/01/24 10:49:42;;;;;;;32.45;20.67;;;;;;;;;;5047079;28;20887;-79
2022/01/24 10:52:12;;;;;;;34.13;22.70;;;;;;;;;;5045816;28;20399;-79
2022/01/24 10:54:40;;;;;;;30.35;20.38;;;;;;;;;;5046488;28;20460;-80
2022/01/24 10:57:07;;;;;;;43.47;27.98;;;;;;;;;;5047266;28;20407;-80
2022/01/24 10:59:36;;;;;;;33.40;24.03;;;;;;;;;;5047129;28;20411;-80
2022/01/24 11:02:04;;;;;;;30.30;18.35;;;;;;;;;;5047473;28;20491;-80
2022/01/24 11:04:33;;;;;;;26.52;17.60;;;;;;;;;;5046571;28;20446;-80
2022/01/24 11:07:02;;;;;;;27.67;18.00;;;;;;;;;;5047444;28;20429;-80
2022/01/24 11:09:32;;;;;;;26.88;15.80;;;;;;;;;;5045699;28;20968;-80
2022/01/24 11:12:02;;;;;;;26.85;16.40;;;;;;;;;;5047172;28;20416;-80
2022/01/24 11:14:31;;;;;;;43.30;25.20;;;;;;;;;;5045040;28;20865;-80
2022/01/24 11:16:59;;;;;;;31.77;20.07;;;;;;;;;;5045925;28;20977;-80
2022/01/24 11:19:30;;;;;;;27.52;16.98;;;;;;;;;;5046616;28;20399;-80
2022/01/24 11:21:58;;;;;;;26.05;17.05;;;;;;;;;;5047412;28;20431;-79
2022/01/24 11:24:36;;;;;;;24.92;16.88;;;;;;;;;;5046092;28;20891;-80
2022/01/24 11:27:05;;;;;;;24.85;16.05;;;;;;;;;;5047664;28;20484;-80
2022/01/24 11:29:33;;;;;;;28.48;18.13;;;;;;;;;;5046334;28;20960;-80
2022/01/24 11:32:07;;;;;;;31.60;19.52;;;;;;;;;;5051012;28;20398;-80
2022/01/24 11:34:37;;;;;;;32.25;19.58;;;;;;;;;;5066193;28;20406;-80
2022/01/24 11:37:05;;;;;;;27.08;17.70;;;;;;;;;;5063884;28;20959;-80
2022/01/24 11:39:32;;;;;;;31.83;18.50;;;;;;;;;;5066622;28;20467;-80
2022/01/24 11:41:59;;;;;;;30.08;17.65;;;;;;;;;;5066650;28;20510;-80
2022/01/24 11:44:46;;;;;;;31.05;19.27;;;;;;;;;;5066065;28;20417;-79
2022/01/24 11:47:22;;;;;;;30.45;19.45;;;;;;;;;;5066524;28;20406;-80
2022/01/24 11:49:52;;;;;;;29.67;19.63;;;;;;;;;;5066237;28;20394;-80
2022/01/24 11:52:19;;;;;;;35.67;21.48;;;;;;;;;;5065988;28;20418;-80
2022/01/24 11:54:52;;;;;;;35.03;22.63;;;;;;;;;;5064285;28;20402;-80
2022/01/24 11:57:28;;;;;;;31.65;20.38;;;;;;;;;;5065052;28;20410;-80
2022/01/24 12:00:22;;;;;;;32.58;19.60;;;;;;;;;;5066186;28;20394;-80
2022/01/24 12:02:51;;;;;;;34.17;20.98;;;;;;;;;;5064812;28;20397;-79
2022/01/24 12:05:20;;;;;;;31.83;21.05;;;;;;;;;;5064534;28;20406;-79
2022/01/24 12:07:48;;;;;;;36.08;23.08;;;;;;;;;;5061892;28;20504;-80
2022/01/24 12:10:42;;;;;;;35.22;23.08;;;;;;;;;;5064386;28;20883;-78
2022/01/24 12:13:14;;;;;;;43.10;27.30;;;;;;;;;;5065740;28;20768;-79
2022/01/24 12:16:00;;;;;;;44.58;27.20;;;;;;;;;;5059437;28;20413;-78
2022/01/24 12:18:52;;;;;;;44.70;28.13;;;;;;;;;;5063649;28;20402;-79
2022/01/24 12:21:23;;;;;;;47.67;30.80;;;;;;;;;;5064538;28;20398;-79
2022/01/24 12:23:52;;;;;;;48.13;30.67;;;;;;;;;;5064300;28;20889;-79
2022/01/24 12:26:25;;;;;;;47.22;29.85;;;;;;;;;;5063676;28;20543;-79
2022/01/24 12:28:58;;;;;;;46.88;29.50;;;;;;;;;;5064723;28;20408;-79
2022/01/24 12:31:30;;;;;;;48.67;32.60;;;;;;;;;;5066851;28;20402;-79
2022/01/24 12:34:10;;;;;;;48.35;32.58;;;;;;;;;;5080756;28;20947;-78
2022/01/24 12:36:59;;;;;;;47.83;30.42;;;;;;;;;;5080948;28;20442;-79
2022/01/24 12:39:32;;;;;;;47.17;30.38;;;;;;;;;;5063100;28;20456;-79
2022/01/24 12:42:02;;;;;;;47.25;30.23;;;;;;;;;;5067943;28;20893;-79
2022/01/24 12:47:22;;;;;;;43.53;28.88;;;;;;;;;;5061155;28;20405;-79
2022/01/24 12:49:50;;;;;;;47.55;33.03;;;;;;;;;;5066850;28;20407;-79
2022/01/24 12:52:18;;;;;;;47.87;30.70;;;;;;;;;;5066644;28;20410;-79
2022/01/24 12:54:48;;;;;;;50.60;31.98;;;;;;;;;;5068922;28;20432;-80
2022/01/24 12:57:17;;;;;;;48.67;32.72;;;;;;;;;;5068476;28;20406;-79
2022/01/24 12:59:54;;;;;;;47.42;31.63;;;;;;;;;;5064987;28;20428;-80
2022/01/24 13:02:26;;;;;;;50.78;31.88;;;;;;;;;;5065464;28;20494;-80
2022/01/24 13:05:01;;;;;;;47.83;30.67;;;;;;;;;;5059965;28;20455;-80
2022/01/24 13:07:30;;;;;;;50.78;32.53;;;;;;;;;;5059844;28;20398;-79
2022/01/24 13:10:04;;;;;;;45.40;29.30;;;;;;;;;;5062867;28;20621;-79
2022/01/24 13:12:31;;;;;;;45.80;29.02;;;;;;;;;;5063404;28;20394;-79
2022/01/24 13:15:02;;;;;;;45.58;28.30;;;;;;;;;;5062620;28;20406;-79
2022/01/24 13:23:06;;;;;;;48.88;31.38;;;;;;;;;;5058194;28;20406;-79
2022/01/24 13:25:36;;;;;;;51.90;33.72;;;;;;;;;;5066059;28;20423;-79
2022/01/24 13:28:06;;;;;;;48.17;31.42;;;;;;;;;;5067420;28;20503;-78
2022/01/24 13:30:35;;;;;;;52.78;34.38;;;;;;;;;;5063800;28;20401;-79
2022/01/24 13:33:06;;;;;;;51.08;34.47;;;;;;;;;;5058286;28;20458;-79
2022/01/24 13:35:35;;;;;;;50.50;35.42;;;;;;;;;;5056828;28;20401;-79
2022/01/24 13:38:04;;;;;;;46.10;31.27;;;;;;;;;;5061378;28;20410;-79
2022/01/24 13:40:41;;;;;;;47.33;33.33;;;;;;;;;;5057504;28;20770;-79
2022/01/24 13:43:09;;;;;;;46.03;30.95;;;;;;;;;;5062278;28;20814;-80
2022/01/24 13:45:38;;;;;;;41.30;28.83;;;;;;;;;;5056975;28;20487;-79
2022/01/24 13:48:16;;;;;;;42.53;30.33;;;;;;;;;;5059358;28;20395;-79
2022/01/24 13:50:49;;;;;;;43.25;30.08;;;;;;;;;;5057548;28;20486;-78
2022/01/24 13:53:29;;;;;;;43.50;30.98;;;;;;;;;;5062136;28;20402;-81
2022/01/24 13:55:56;;;;;;;38.20;26.98;;;;;;;;;;5063670;28;20409;-80
2022/01/24 13:58:25;;;;;;;41.58;28.05;;;;;;;;;;5064142;28;20402;-80
2022/01/24 14:00:58;;;;;;;39.72;26.52;;;;;;;;;;5063042;28;20782;-80
2022/01/24 14:03:26;;;;;;;41.40;26.25;;;;;;;;;;5064719;28;20420;-80
2022/01/24 14:06:12;;;;;;;39.10;26.90;;;;;;;;;;5063833;28;20406;-80
2022/01/24 14:08:39;;;;;;;40.17;28.63;;;;;;;;;;5062339;28;20401;-80
2022/01/24 14:11:12;;;;;;;42.60;29.65;;;;;;;;;;5064266;28;20424;-80
2022/01/24 14:13:40;;;;;;;43.07;29.40;;;;;;;;;;5063635;28;20499;-80
2022/01/24 14:16:21;;;;;;;41.53;28.23;;;;;;;;;;5063477;28;20406;-80
2022/01/24 14:19:02;;;;;;;36.13;24.42;;;;;;;;;;5063777;28;20901;-80
2022/01/24 14:21:29;;;;;;;41.85;27.30;;;;;;;;;;5064125;28;20405;-80
2022/01/24 14:23:56;;;;;;;38.60;26.70;;;;;;;;;;5063128;28;20414;-80
2022/01/24 14:26:27;;;;;;;42.42;27.40;;;;;;;;;;5064707;28;20460;-80
2022/01/24 14:29:06;;;;;;;39.95;25.70;;;;;;;;;;5063741;28;20405;-80
2022/01/24 14:31:33;;;;;;;41.80;26.07;;;;;;;;;;5063644;28;20409;-81
2022/01/24 14:34:04;;;;;;;38.85;25.58;;;;;;;;;;5069769;28;20404;-81
2022/01/24 14:36:31;;;;;;;39.30;26.77;;;;;;;;;;5068229;28;20460;-80
2022/01/24 14:39:00;;;;;;;40.03;25.83;;;;;;;;;;5069795;28;20455;-81
2022/01/24 14:41:35;;;;;;;41.13;26.23;;;;;;;;;;5071652;28;20410;-81
2022/01/24 14:47:00;;;;;;;40.10;27.67;;;;;;;;;;5026477;28;20512;-79
2022/01/24 14:49:31;;;;;;;40.38;27.73;;;;;;;;;;5060721;28;20405;-80
2022/01/24 14:52:04;;;;;;;41.08;27.08;;;;;;;;;;5071307;28;20873;-79
2022/01/24 14:54:34;;;;;;;42.50;27.00;;;;;;;;;;5071928;28;20497;-79
2022/01/24 14:57:03;;;;;;;40.72;26.33;;;;;;;;;;5069020;28;20402;-79
2022/01/24 14:59:31;;;;;;;38.75;24.85;;;;;;;;;;5064866;28;20398;-79
2022/01/24 15:01:58;;;;;;;37.38;24.33;;;;;;;;;;5084374;28;20401;-79
2022/01/24 15:04:25;;;;;;;35.53;23.77;;;;;;;;;;5076775;28;20423;-79
2022/01/24 15:06:54;;;;;;;39.67;24.73;;;;;;;;;;5083473;28;20690;-79
2022/01/24 15:09:23;;;;;;;37.58;24.50;;;;;;;;;;5082643;28;20385;-79
2022/01/24 15:11:51;;;;;;;38.37;24.67;;;;;;;;;;5081664;28;20793;-79
2022/01/24 15:14:22;;;;;;;39.80;24.60;;;;;;;;;;5072451;28;20942;-79
2022/01/24 15:16:56;;;;;;;37.97;24.50;;;;;;;;;;5063166;28;20510;-79
2022/01/24 15:27:40;;;;;;;39.25;24.95;;;;;;;;;;5055849;28;20413;-79
2022/01/24 15:30:09;;;;;;;41.95;25.17;;;;;;;;;;5061176;28;20408;-81
2022/01/24 15:32:36;;;;;;;41.00;24.95;;;;;;;;;;5059766;28;20450;-81
2022/01/24 15:35:03;;;;;;;42.78;26.02;;;;;;;;;;5065708;28;20398;-81
2022/01/24 15:37:32;;;;;;;41.20;26.35;;;;;;;;;;5065012;28;20861;-81
2022/01/24 15:39:59;;;;;;;45.97;27.92;;;;;;;;;;5065704;28;20423;-80
2022/01/24 15:42:39;;;;;;;43.22;27.30;;;;;;;;;;5066689;28;20401;-79
2022/01/24 15:45:30;;;;;;;45.03;27.80;;;;;;;;;;5058356;28;25214;-80
2022/01/24 15:47:58;;;;;;;44.30;27.50;;;;;;;;;;5060929;28;20419;-81
2022/01/24 15:50:26;;;;;;;45.15;28.67;;;;;;;;;;5061145;28;20519;-81
2022/01/24 15:52:58;;;;;;;45.80;28.48;;;;;;;;;;5060686;28;20432;-80
2022/01/24 15:55:29;;;;;;;45.38;28.50;;;;;;;;;;5062827;28;20432;-80
2022/01/24 15:57:58;;;;;;;50.72;31.67;;;;;;;;;;5061631;28;20411;-82
2022/01/24 16:00:27;;;;;;;50.95;32.35;;;;;;;;;;5067225;28;20796;-80
2022/01/24 16:02:56;;;;;;;50.30;30.73;;;;;;;;;;5065022;28;20419;-82